Besiktas Bosphorus — TCOG3 — position and weather

sailwx.info

Track history (hours):
 
Tides and Currents Weather Stations Pressure Air Temp Water Temp Dewpoint Dewpoint Depression Visibility Wind Speed Wind Dir Waves Ship Positions

Besiktas Bosphorus

Last reported at 2018-Jun-14 18:21 UTC. Time now 2018-Jun-19 18:23 UTC.
Position N 41°35' E 029°38'.

Length 274 m; draft 15.6 m.

Type: Tanker. MMSI: 271000817.

Date/timePositionNaut miles runAvg speedWind from/ knotsBaromVisibWave heightAir tempDewpointWater temp
2018-Jun-14 18:21N 41°35' E 029°38'1433.0
2018-Jun-14 17:55N 41°42' E 029°55'44 6.3
2018-Jun-14 10:55N 42°02' E 030°48'712.6
2018-Jun-14 10:19N 42°05' E 030°57'8312.7
2018-Jun-14 03:45N 42°42' E 032°37'1212.7
2018-Jun-14 02:47N 42°48' E 032°53'2312.9
2018-Jun-14 00:58N 42°59' E 033°21'613.1
2018-Jun-14 00:30N 43°01' E 033°28'6813.3
2018-Jun-13 19:21N 43°32' E 034°52'713.2
2018-Jun-13 18:50N 43°35' E 035°01'413.2
2018-Jun-13 18:30N 43°37' E 035°06'713.1
2018-Jun-13 17:58N 43°40' E 035°15'613.0
2018-Jun-13 17:29N 43°43' E 035°22'612.9
2018-Jun-13 17:00N 43°46' E 035°30'813.0
2018-Jun-13 16:23N 43°49' E 035°40'713.0
2018-Jun-13 15:52N 43°52' E 035°48'3412.9
2018-Jun-13 13:13N 44°08' E 036°31'312.9
2018-Jun-13 12:57N 44°09' E 036°35'812.7
2018-Jun-13 12:17N 44°13' E 036°46'412.7
2018-Jun-13 11:58N 44°15' E 036°51'612.6
2018-Jun-13 11:30N 44°18' E 036°58'712.4
2018-Jun-13 10:59N 44°21' E 037°06'1012.6
2018-Jun-13 10:09N 44°25' E 037°19'412.8
2018-Jun-13 09:51N 44°27' E 037°24'512.9
2018-Jun-13 09:30N 44°29' E 037°29'612.8
2018-Jun-13 09:00N 44°33' E 037°37'5 9.9
2018-Jun-13 08:30N 44°36' E 037°42'0 0.4
2018-Jun-13 08:00N 44°36' E 037°42'0 0.2
2018-Jun-13 07:30N 44°36' E 037°42'0 0.1
2018-Jun-13 07:00N 44°36' E 037°42'0 0.4
2018-Jun-13 06:30N 44°36' E 037°43'0 0.1
2018-Jun-13 06:00N 44°37' E 037°43'1 1.6
2018-Jun-13 05:30N 44°37' E 037°41'1 2.9
2018-Jun-13 05:00N 44°37' E 037°40'0 0.7
2018-Jun-13 04:24N 44°37' E 037°39'0 0.0
2018-Jun-13 04:00N 44°37' E 037°39'0 0.0
2018-Jun-13 03:27N 44°37' E 037°39'0 0.0
2018-Jun-13 03:00N 44°37' E 037°39'0 0.0
2018-Jun-12 22:18N 44°37' E 037°39'0 0.0
2018-Jun-12 19:24N 44°37' E 037°39'0 0.0
2018-Jun-12 18:54N 44°37' E 037°39'0 0.1
2018-Jun-12 14:09N 44°37' E 037°40'0 0.0
2018-Jun-12 13:51N 44°37' E 037°40'0 0.1
2018-Jun-12 10:52N 44°37' E 037°39'0 0.1
2018-Jun-12 10:23N 44°37' E 037°39'0 0.0
2018-Jun-12 10:00N 44°37' E 037°39'1 1.3
2018-Jun-12 09:30N 44°37' E 037°39'2 3.6
2018-Jun-12 09:00N 44°35' E 037°38'1 1.4
2018-Jun-12 08:30N 44°35' E 037°39'2 4.8
2018-Jun-12 08:00N 44°32' E 037°40'2 3.8
2018-Jun-12 07:30N 44°31' E 037°41'0 0.5
2018-Jun-12 07:00N 44°31' E 037°41'0 0.3
2018-Jun-12 06:30N 44°31' E 037°41'0 0.5
2018-Jun-12 06:00N 44°31' E 037°41'0 0.4
2018-Jun-12 05:30N 44°32' E 037°41'0 0.3
2018-Jun-12 05:00N 44°32' E 037°41'0 0.4
2018-Jun-12 04:30N 44°32' E 037°41'0 0.5
2018-Jun-12 04:00N 44°32' E 037°41'0 0.4
2018-Jun-12 03:30N 44°33' E 037°41'0 0.4
2018-Jun-12 03:00N 44°33' E 037°41'0 0.4
2018-Jun-12 02:30N 44°33' E 037°41'0 0.3
2018-Jun-12 02:00N 44°33' E 037°41'0 0.1
2018-Jun-12 01:30N 44°33' E 037°41'0 0.2
2018-Jun-12 01:00N 44°33' E 037°41'0 0.3
2018-Jun-12 00:30N 44°33' E 037°42'0 0.3
2018-Jun-12 00:00N 44°33' E 037°42'0 0.3
2018-Jun-11 23:30N 44°34' E 037°42'0 0.3
2018-Jun-11 23:00N 44°34' E 037°42'0 0.3
2018-Jun-11 22:30N 44°34' E 037°42'0 0.3
2018-Jun-11 22:00N 44°34' E 037°42'0 0.2
2018-Jun-11 21:30N 44°34' E 037°43'0 0.3
2018-Jun-11 21:00N 44°34' E 037°43'0 0.3
2018-Jun-11 20:30N 44°34' E 037°43'0 0.3
2018-Jun-11 20:00N 44°34' E 037°43'0 0.3
2018-Jun-11 19:30N 44°34' E 037°43'0 0.4
2018-Jun-11 19:00N 44°35' E 037°43'0 0.4
2018-Jun-11 18:30N 44°35' E 037°43'0 0.4
2018-Jun-11 18:00N 44°35' E 037°43'0 0.4
2018-Jun-11 17:30N 44°35' E 037°43'0 0.3
2018-Jun-11 17:00N 44°35' E 037°42'0 0.4
2018-Jun-11 16:30N 44°35' E 037°42'0 0.4
2018-Jun-11 16:00N 44°35' E 037°42'0 0.2
2018-Jun-11 15:30N 44°35' E 037°42'0 0.2
2018-Jun-11 15:00N 44°35' E 037°42'0 0.2
2018-Jun-11 14:30N 44°35' E 037°42'0 0.2
2018-Jun-11 14:00N 44°35' E 037°42'1 2.4
2018-Jun-11 13:30N 44°36' E 037°42'0 1.0
2018-Jun-11 13:00N 44°36' E 037°43'4 8.5
2018-Jun-11 12:29N 44°32' E 037°42'3 6.8
2018-Jun-11 12:00N 44°29' E 037°40'0 0.3
2018-Jun-11 11:30N 44°29' E 037°40'0 0.3
2018-Jun-11 11:00N 44°29' E 037°40'0 0.2
2018-Jun-11 10:30N 44°29' E 037°40'0 0.2
2018-Jun-11 10:00N 44°29' E 037°40'0 0.3
2018-Jun-11 09:30N 44°30' E 037°40'0 0.4
2018-Jun-11 09:00N 44°30' E 037°40'0 0.4
2018-Jun-11 08:30N 44°30' E 037°40'0 0.5
2018-Jun-11 08:00N 44°30' E 037°40'0 0.6
2018-Jun-11 07:30N 44°31' E 037°40'0 0.6
2018-Jun-11 07:00N 44°31' E 037°40'0 0.5
2018-Jun-11 06:30N 44°31' E 037°40'0 0.5
2018-Jun-11 06:00N 44°31' E 037°40'0 0.4
2018-Jun-11 05:30N 44°31' E 037°40'0 0.4
2018-Jun-11 05:00N 44°32' E 037°40'0 0.2
2018-Jun-11 04:30N 44°32' E 037°39'0 0.2
2018-Jun-11 04:00N 44°32' E 037°40'0 0.3
2018-Jun-11 03:30N 44°32' E 037°40'0 0.4
2018-Jun-11 03:00N 44°32' E 037°40'0 0.5
2018-Jun-11 02:30N 44°32' E 037°40'0 0.7
2018-Jun-11 02:00N 44°32' E 037°41'0 0.8
2018-Jun-11 01:30N 44°31' E 037°41'0 0.8
2018-Jun-11 01:00N 44°31' E 037°42'0 0.8
2018-Jun-11 00:30N 44°31' E 037°43'0 0.6
2018-Jun-11 00:00N 44°31' E 037°43'0 0.8
2018-Jun-10 23:30N 44°32' E 037°43'2 3.6
2018-Jun-10 23:00N 44°34' E 037°43'3 6.0
2018-Jun-10 22:30N 44°36' E 037°43'1 1.4
2018-Jun-10 22:00N 44°36' E 037°42'1 1.8
2018-Jun-10 21:30N 44°35' E 037°41'1 1.1
2018-Jun-10 21:00N 44°35' E 037°42'1 2.0
2018-Jun-10 20:30N 44°35' E 037°42'2 3.9
2018-Jun-10 20:00N 44°33' E 037°40'0 0.7
2018-Jun-10 19:30N 44°33' E 037°41'0 0.4
2018-Jun-10 19:00N 44°33' E 037°41'0 0.5
2018-Jun-10 18:30N 44°33' E 037°41'1 1.3
2018-Jun-10 18:00N 44°33' E 037°42'4 7.2
2018-Jun-10 17:30N 44°29' E 037°40'3 6.8
2018-Jun-10 17:00N 44°26' E 037°38'1 2.6
2018-Jun-10 16:30N 44°25' E 037°37'0 0.6
2018-Jun-10 16:00N 44°25' E 037°37'0 0.6
2018-Jun-10 15:30N 44°25' E 037°36'0 0.6
2018-Jun-10 15:00N 44°26' E 037°36'0 0.6
2018-Jun-10 14:30N 44°26' E 037°35'1 0.6
2018-Jun-10 13:30N 44°26' E 037°35'1 1.1
2018-Jun-10 13:00N 44°26' E 037°34'2 3.8
2018-Jun-10 12:30N 44°25' E 037°31'4 7.1
2018-Jun-10 12:00N 44°23' E 037°27'4 7.6
2018-Jun-10 11:30N 44°22' E 037°22'4 8.8
2018-Jun-10 11:00N 44°20' E 037°17'4 8.7
2018-Jun-10 10:30N 44°18' E 037°11'4 8.6
2018-Jun-10 10:00N 44°16' E 037°06'5 8.6
2018-Jun-10 09:27N 44°14' E 036°60'46 8.0
2018-Jun-10 03:38N 43°55' E 036°01'2 8.1
2018-Jun-10 03:25N 43°54' E 035°59'43 8.9
2018-Jun-09 22:36N 43°38' E 035°04'1 9.1
2018-Jun-09 22:30N 43°38' E 035°03'5 9.1
2018-Jun-09 22:00N 43°36' E 034°57'4 8.9
2018-Jun-09 21:30N 43°34' E 034°51'5 9.2
2018-Jun-09 21:00N 43°33' E 034°45'5 9.2
2018-Jun-09 20:28N 43°31' E 034°39'4 9.0
2018-Jun-09 20:00N 43°29' E 034°34'5 9.0
2018-Jun-09 19:24N 43°27' E 034°27'4 8.8
2018-Jun-09 18:58N 43°26' E 034°22'8 8.6
2018-Jun-09 17:59N 43°23' E 034°11'4 8.4
2018-Jun-09 17:30N 43°21' E 034°06'4 8.1
2018-Jun-09 17:00N 43°20' E 034°01'4 7.9
2018-Jun-09 16:30N 43°18' E 033°56'4 7.8
2018-Jun-09 16:00N 43°17' E 033°51'8 7.6
2018-Jun-09 14:57N 43°14' E 033°40'3 7.6
2018-Jun-09 14:30N 43°12' E 033°36'4 7.6
2018-Jun-09 14:00N 43°11' E 033°31'4 7.8
2018-Jun-09 13:30N 43°09' E 033°26'8 7.9
2018-Jun-09 12:29N 43°06' E 033°16'4 8.2
2018-Jun-09 11:58N 43°05' E 033°11'4 8.4
2018-Jun-09 11:30N 43°03' E 033°06'45 8.7
2018-Jun-09 06:19N 42°46' E 032°08'4 8.5
2018-Jun-09 05:48N 42°45' E 032°03'3 8.4
2018-Jun-09 05:24N 42°43' E 031°59'3 8.3
2018-Jun-09 05:00N 42°42' E 031°55'4 8.2
2018-Jun-09 04:28N 42°41' E 031°49'4 8.0
2018-Jun-09 04:00N 42°39' E 031°44'4 7.9
2018-Jun-09 03:30N 42°38' E 031°39'4 8.0
2018-Jun-09 03:00N 42°36' E 031°34'5 8.0
2018-Jun-09 02:22N 42°34' E 031°28'3 8.1
2018-Jun-09 02:00N 42°33' E 031°24'4 8.2
2018-Jun-09 01:30N 42°32' E 031°19'4 8.2
2018-Jun-09 01:00N 42°30' E 031°14'4 8.2
2018-Jun-09 00:30N 42°28' E 031°09'4 8.2
2018-Jun-09 00:00N 42°27' E 031°04'12 8.5
2018-Jun-08 22:37N 42°23' E 030°49'1 8.6
2018-Jun-08 22:30N 42°22' E 030°48'4 8.5
2018-Jun-08 21:59N 42°21' E 030°42'4 8.6
2018-Jun-08 21:28N 42°19' E 030°37'4 8.5
2018-Jun-08 21:00N 42°17' E 030°32'12 8.6
2018-Jun-08 19:39N 42°13' E 030°17'7 8.6
2018-Jun-08 18:50N 42°10' E 030°08'4 8.6
2018-Jun-08 18:25N 42°09' E 030°04'5 8.6
2018-Jun-08 17:49N 42°07' E 029°57'4 8.5
2018-Jun-08 17:23N 42°06' E 029°53'3 8.4
2018-Jun-08 16:58N 42°04' E 029°48'4 8.3
2018-Jun-08 16:30N 42°03' E 029°44'4 8.2
2018-Jun-08 15:59N 41°60' E 029°40'4 8.5
2018-Jun-08 15:30N 41°56' E 029°38'4 8.6
2018-Jun-08 15:00N 41°52' E 029°35'4 8.6
2018-Jun-08 14:30N 41°48' E 029°32'5 8.6
2018-Jun-08 13:57N 41°44' E 029°29'4 8.4
2018-Jun-08 13:30N 41°41' E 029°27'4 8.3
2018-Jun-08 13:00N 41°37' E 029°25'4 8.4
2018-Jun-08 12:30N 41°33' E 029°22'4 8.5
2018-Jun-08 12:00N 41°30' E 029°20'4 8.6
2018-Jun-08 11:30N 41°26' E 029°17'4 8.5
2018-Jun-08 11:00N 41°22' E 029°15'10 8.2
2018-Jun-08 09:45N 41°13' E 029°08'18 7.8
2018-Jun-08 07:29N 40°57' E 028°59'  
Track history (hours):
 
Tides and Currents Weather Stations Pressure Air Temp Water Temp Dewpoint Dewpoint Depression Visibility Wind Speed Wind Dir Waves Ship Positions

Besiktas Bosphorus

Last reported at 2018-Jun-14 18:21 UTC. Time now 2018-Jun-19 18:23 UTC.
Position N 41°35' E 029°38'.

Length 274 m; draft 15.6 m.

Type: Tanker. MMSI: 271000817.

Date/timePositionNaut miles runAvg speedWind from/ knotsBaromVisibWave heightAir tempDewpointWater temp
2018-Jun-14 18:21N 41°35' E 029°38'1433.0
2018-Jun-14 17:55N 41°42' E 029°55'44 6.3
2018-Jun-14 10:55N 42°02' E 030°48'712.6
2018-Jun-14 10:19N 42°05' E 030°57'8312.7
2018-Jun-14 03:45N 42°42' E 032°37'1212.7
2018-Jun-14 02:47N 42°48' E 032°53'2312.9
2018-Jun-14 00:58N 42°59' E 033°21'613.1
2018-Jun-14 00:30N 43°01' E 033°28'6813.3
2018-Jun-13 19:21N 43°32' E 034°52'713.2
2018-Jun-13 18:50N 43°35' E 035°01'413.2
2018-Jun-13 18:30N 43°37' E 035°06'713.1
2018-Jun-13 17:58N 43°40' E 035°15'613.0
2018-Jun-13 17:29N 43°43' E 035°22'612.9
2018-Jun-13 17:00N 43°46' E 035°30'813.0
2018-Jun-13 16:23N 43°49' E 035°40'713.0
2018-Jun-13 15:52N 43°52' E 035°48'3412.9
2018-Jun-13 13:13N 44°08' E 036°31'312.9
2018-Jun-13 12:57N 44°09' E 036°35'812.7
2018-Jun-13 12:17N 44°13' E 036°46'412.7
2018-Jun-13 11:58N 44°15' E 036°51'612.6
2018-Jun-13 11:30N 44°18' E 036°58'712.4
2018-Jun-13 10:59N 44°21' E 037°06'1012.6
2018-Jun-13 10:09N 44°25' E 037°19'412.8
2018-Jun-13 09:51N 44°27' E 037°24'512.9
2018-Jun-13 09:30N 44°29' E 037°29'612.8
2018-Jun-13 09:00N 44°33' E 037°37'5 9.9
2018-Jun-13 08:30N 44°36' E 037°42'0 0.4
2018-Jun-13 08:00N 44°36' E 037°42'0 0.2
2018-Jun-13 07:30N 44°36' E 037°42'0 0.1
2018-Jun-13 07:00N 44°36' E 037°42'0 0.4
2018-Jun-13 06:30N 44°36' E 037°43'0 0.1
2018-Jun-13 06:00N 44°37' E 037°43'1 1.6
2018-Jun-13 05:30N 44°37' E 037°41'1 2.9
2018-Jun-13 05:00N 44°37' E 037°40'0 0.7
2018-Jun-13 04:24N 44°37' E 037°39'0 0.0
2018-Jun-13 04:00N 44°37' E 037°39'0 0.0
2018-Jun-13 03:27N 44°37' E 037°39'0 0.0
2018-Jun-13 03:00N 44°37' E 037°39'0 0.0
2018-Jun-12 22:18N 44°37' E 037°39'0 0.0
2018-Jun-12 19:24N 44°37' E 037°39'0 0.0
2018-Jun-12 18:54N 44°37' E 037°39'0 0.1
2018-Jun-12 14:09N 44°37' E 037°40'0 0.0
2018-Jun-12 13:51N 44°37' E 037°40'0 0.1
2018-Jun-12 10:52N 44°37' E 037°39'0 0.1
2018-Jun-12 10:23N 44°37' E 037°39'0 0.0
2018-Jun-12 10:00N 44°37' E 037°39'1 1.3
2018-Jun-12 09:30N 44°37' E 037°39'2 3.6
2018-Jun-12 09:00N 44°35' E 037°38'1 1.4
2018-Jun-12 08:30N 44°35' E 037°39'2 4.8
2018-Jun-12 08:00N 44°32' E 037°40'2 3.8
2018-Jun-12 07:30N 44°31' E 037°41'0 0.5
2018-Jun-12 07:00N 44°31' E 037°41'0 0.3
2018-Jun-12 06:30N 44°31' E 037°41'0 0.5
2018-Jun-12 06:00N 44°31' E 037°41'0 0.4
2018-Jun-12 05:30N 44°32' E 037°41'0 0.3
2018-Jun-12 05:00N 44°32' E 037°41'0 0.4
2018-Jun-12 04:30N 44°32' E 037°41'0 0.5
2018-Jun-12 04:00N 44°32' E 037°41'0 0.4
2018-Jun-12 03:30N 44°33' E 037°41'0 0.4
2018-Jun-12 03:00N 44°33' E 037°41'0 0.4
2018-Jun-12 02:30N 44°33' E 037°41'0 0.3
2018-Jun-12 02:00N 44°33' E 037°41'0 0.1
2018-Jun-12 01:30N 44°33' E 037°41'0 0.2
2018-Jun-12 01:00N 44°33' E 037°41'0 0.3
2018-Jun-12 00:30N 44°33' E 037°42'0 0.3
2018-Jun-12 00:00N 44°33' E 037°42'0 0.3
2018-Jun-11 23:30N 44°34' E 037°42'0 0.3
2018-Jun-11 23:00N 44°34' E 037°42'0 0.3
2018-Jun-11 22:30N 44°34' E 037°42'0 0.3
2018-Jun-11 22:00N 44°34' E 037°42'0 0.2
2018-Jun-11 21:30N 44°34' E 037°43'0 0.3
2018-Jun-11 21:00N 44°34' E 037°43'0 0.3
2018-Jun-11 20:30N 44°34' E 037°43'0 0.3
2018-Jun-11 20:00N 44°34' E 037°43'0 0.3
2018-Jun-11 19:30N 44°34' E 037°43'0 0.4
2018-Jun-11 19:00N 44°35' E 037°43'0 0.4
2018-Jun-11 18:30N 44°35' E 037°43'0 0.4
2018-Jun-11 18:00N 44°35' E 037°43'0 0.4
2018-Jun-11 17:30N 44°35' E 037°43'0 0.3
2018-Jun-11 17:00N 44°35' E 037°42'0 0.4
2018-Jun-11 16:30N 44°35' E 037°42'0 0.4
2018-Jun-11 16:00N 44°35' E 037°42'0 0.2
2018-Jun-11 15:30N 44°35' E 037°42'0 0.2
2018-Jun-11 15:00N 44°35' E 037°42'0 0.2
2018-Jun-11 14:30N 44°35' E 037°42'0 0.2
2018-Jun-11 14:00N 44°35' E 037°42'1 2.4
2018-Jun-11 13:30N 44°36' E 037°42'0 1.0
2018-Jun-11 13:00N 44°36' E 037°43'4 8.5
2018-Jun-11 12:29N 44°32' E 037°42'3 6.8
2018-Jun-11 12:00N 44°29' E 037°40'0 0.3
2018-Jun-11 11:30N 44°29' E 037°40'0 0.3
2018-Jun-11 11:00N 44°29' E 037°40'0 0.2
2018-Jun-11 10:30N 44°29' E 037°40'0 0.2
2018-Jun-11 10:00N 44°29' E 037°40'0 0.3
2018-Jun-11 09:30N 44°30' E 037°40'0 0.4
2018-Jun-11 09:00N 44°30' E 037°40'0 0.4
2018-Jun-11 08:30N 44°30' E 037°40'0 0.5
2018-Jun-11 08:00N 44°30' E 037°40'0 0.6
2018-Jun-11 07:30N 44°31' E 037°40'0 0.6
2018-Jun-11 07:00N 44°31' E 037°40'0 0.5
2018-Jun-11 06:30N 44°31' E 037°40'0 0.5
2018-Jun-11 06:00N 44°31' E 037°40'0 0.4
2018-Jun-11 05:30N 44°31' E 037°40'0 0.4
2018-Jun-11 05:00N 44°32' E 037°40'0 0.2
2018-Jun-11 04:30N 44°32' E 037°39'0 0.2
2018-Jun-11 04:00N 44°32' E 037°40'0 0.3
2018-Jun-11 03:30N 44°32' E 037°40'0 0.4
2018-Jun-11 03:00N 44°32' E 037°40'0 0.5
2018-Jun-11 02:30N 44°32' E 037°40'0 0.7
2018-Jun-11 02:00N 44°32' E 037°41'0 0.8
2018-Jun-11 01:30N 44°31' E 037°41'0 0.8
2018-Jun-11 01:00N 44°31' E 037°42'0 0.8
2018-Jun-11 00:30N 44°31' E 037°43'0 0.6
2018-Jun-11 00:00N 44°31' E 037°43'0 0.8
2018-Jun-10 23:30N 44°32' E 037°43'2 3.6
2018-Jun-10 23:00N 44°34' E 037°43'3 6.0
2018-Jun-10 22:30N 44°36' E 037°43'1 1.4
2018-Jun-10 22:00N 44°36' E 037°42'1 1.8
2018-Jun-10 21:30N 44°35' E 037°41'1 1.1
2018-Jun-10 21:00N 44°35' E 037°42'1 2.0
2018-Jun-10 20:30N 44°35' E 037°42'2 3.9
2018-Jun-10 20:00N 44°33' E 037°40'0 0.7
2018-Jun-10 19:30N 44°33' E 037°41'0 0.4
2018-Jun-10 19:00N 44°33' E 037°41'0 0.5
2018-Jun-10 18:30N 44°33' E 037°41'1 1.3
2018-Jun-10 18:00N 44°33' E 037°42'4 7.2
2018-Jun-10 17:30N 44°29' E 037°40'3 6.8
2018-Jun-10 17:00N 44°26' E 037°38'1 2.6
2018-Jun-10 16:30N 44°25' E 037°37'0 0.6
2018-Jun-10 16:00N 44°25' E 037°37'0 0.6
2018-Jun-10 15:30N 44°25' E 037°36'0 0.6
2018-Jun-10 15:00N 44°26' E 037°36'0 0.6
2018-Jun-10 14:30N 44°26' E 037°35'1 0.6
2018-Jun-10 13:30N 44°26' E 037°35'1 1.1
2018-Jun-10 13:00N 44°26' E 037°34'2 3.8
2018-Jun-10 12:30N 44°25' E 037°31'4 7.1
2018-Jun-10 12:00N 44°23' E 037°27'4 7.6
2018-Jun-10 11:30N 44°22' E 037°22'4 8.8
2018-Jun-10 11:00N 44°20' E 037°17'4 8.7
2018-Jun-10 10:30N 44°18' E 037°11'4 8.6
2018-Jun-10 10:00N 44°16' E 037°06'5 8.6
2018-Jun-10 09:27N 44°14' E 036°60'46 8.0
2018-Jun-10 03:38N 43°55' E 036°01'2 8.1
2018-Jun-10 03:25N 43°54' E 035°59'43 8.9
2018-Jun-09 22:36N 43°38' E 035°04'1 9.1
2018-Jun-09 22:30N 43°38' E 035°03'5 9.1
2018-Jun-09 22:00N 43°36' E 034°57'4 8.9
2018-Jun-09 21:30N 43°34' E 034°51'5 9.2
2018-Jun-09 21:00N 43°33' E 034°45'5 9.2
2018-Jun-09 20:28N 43°31' E 034°39'4 9.0
2018-Jun-09 20:00N 43°29' E 034°34'5 9.0
2018-Jun-09 19:24N 43°27' E 034°27'4 8.8
2018-Jun-09 18:58N 43°26' E 034°22'8 8.6
2018-Jun-09 17:59N 43°23' E 034°11'4 8.4
2018-Jun-09 17:30N 43°21' E 034°06'4 8.1
2018-Jun-09 17:00N 43°20' E 034°01'4 7.9
2018-Jun-09 16:30N 43°18' E 033°56'4 7.8
2018-Jun-09 16:00N 43°17' E 033°51'8 7.6
2018-Jun-09 14:57N 43°14' E 033°40'3 7.6
2018-Jun-09 14:30N 43°12' E 033°36'4 7.6
2018-Jun-09 14:00N 43°11' E 033°31'4 7.8
2018-Jun-09 13:30N 43°09' E 033°26'8 7.9
2018-Jun-09 12:29N 43°06' E 033°16'4 8.2
2018-Jun-09 11:58N 43°05' E 033°11'4 8.4
2018-Jun-09 11:30N 43°03' E 033°06'45 8.7
2018-Jun-09 06:19N 42°46' E 032°08'4 8.5
2018-Jun-09 05:48N 42°45' E 032°03'3 8.4
2018-Jun-09 05:24N 42°43' E 031°59'3 8.3
2018-Jun-09 05:00N 42°42' E 031°55'4 8.2
2018-Jun-09 04:28N 42°41' E 031°49'4 8.0
2018-Jun-09 04:00N 42°39' E 031°44'4 7.9
2018-Jun-09 03:30N 42°38' E 031°39'4 8.0
2018-Jun-09 03:00N 42°36' E 031°34'5 8.0
2018-Jun-09 02:22N 42°34' E 031°28'3 8.1
2018-Jun-09 02:00N 42°33' E 031°24'4 8.2
2018-Jun-09 01:30N 42°32' E 031°19'4 8.2
2018-Jun-09 01:00N 42°30' E 031°14'4 8.2
2018-Jun-09 00:30N 42°28' E 031°09'4 8.2
2018-Jun-09 00:00N 42°27' E 031°04'12 8.5
2018-Jun-08 22:37N 42°23' E 030°49'1 8.6
2018-Jun-08 22:30N 42°22' E 030°48'4 8.5
2018-Jun-08 21:59N 42°21' E 030°42'4 8.6
2018-Jun-08 21:28N 42°19' E 030°37'4 8.5
2018-Jun-08 21:00N 42°17' E 030°32'12 8.6
2018-Jun-08 19:39N 42°13' E 030°17'7 8.6
2018-Jun-08 18:50N 42°10' E 030°08'4 8.6
2018-Jun-08 18:25N 42°09' E 030°04'5 8.6
2018-Jun-08 17:49N 42°07' E 029°57'4 8.5
2018-Jun-08 17:23N 42°06' E 029°53'3 8.4
2018-Jun-08 16:58N 42°04' E 029°48'4 8.3
2018-Jun-08 16:30N 42°03' E 029°44'4 8.2
2018-Jun-08 15:59N 41°60' E 029°40'4 8.5
2018-Jun-08 15:30N 41°56' E 029°38'4 8.6
2018-Jun-08 15:00N 41°52' E 029°35'4 8.6
2018-Jun-08 14:30N 41°48' E 029°32'5 8.6
2018-Jun-08 13:57N 41°44' E 029°29'4 8.4
2018-Jun-08 13:30N 41°41' E 029°27'4 8.3
2018-Jun-08 13:00N 41°37' E 029°25'4 8.4
2018-Jun-08 12:30N 41°33' E 029°22'4 8.5
2018-Jun-08 12:00N 41°30' E 029°20'4 8.6
2018-Jun-08 11:30N 41°26' E 029°17'4 8.5
2018-Jun-08 11:00N 41°22' E 029°15'10 8.2
2018-Jun-08 09:45N 41°13' E 029°08'18 7.8
2018-Jun-08 07:29N 40°57' E 028°59'  

Dump ship's entire track history